Estación Meteorológica Peña el Pijo (Robertgarden) [ 10/21/17 19:50:37 CEST ]

Fecha Hora Presion(HPa) Temp (°C) Humedad % Rocio (°C) Viento ( m/s) Direccion Lluvia 1Hora(mm) Lluvia 24H(mm) LLuvia Total(mm)
2017-Oct-05 01:01:55 1017.500 11.2 79 7.7         1457.65
2017-Oct-05 02:01:54 1017.300 10.0 82 7.0         1457.65
2017-Oct-05 03:02:18 1016.900 9.1 82 6.1         1457.65
2017-Oct-05 04:06:09 1016.600 8.4 84 5.8         1457.65
2017-Oct-05 05:01:55 1016.500 7.8 85 5.4         1457.65
2017-Oct-05 06:01:53 1016.300 7.4 85 5.0         1457.65
2017-Oct-05 07:01:36 1016.500 6.9 85 4.5         1457.65
2017-Oct-05 08:01:44 1016.500 6.6 86 4.4         1457.65
2017-Oct-05 09:01:41 1016.700 6.6 86 4.4         1457.65
2017-Oct-05 10:01:43 1016.600 12.9 86 10.6         1457.65
2017-Oct-05 11:01:52 1016.800 20.8 55 11.4         1457.65
2017-Oct-05 12:01:48 1016.400 26.3 37 10.4 0.5 S     1457.65
2017-Oct-05 13:01:44 1016.100 26.8 32 8.7         1457.65
2017-Oct-05 14:01:52 1015.300 27.1 31 8.5         1457.65
2017-Oct-05 15:01:44 1014.600 29.0 28 8.5         1457.65
2017-Oct-05 16:01:55 1013.900 29.3 28 8.8         1457.65
2017-Oct-05 17:01:35 1013.600 29.4 28 8.9         1457.65
2017-Oct-05 18:01:59 1013.100 28.4 26 6.8         1457.65
2017-Oct-05 19:02:01 1013.200 24.5 30 5.8         1457.65
2017-Oct-05 20:02:14 1013.400 20.1 41 6.4         1457.65
2017-Oct-05 21:01:54 1013.800 16.1 51 6.0         1457.65
2017-Oct-05 22:02:03 1014.300 13.8 56 5.2         1457.65
2017-Oct-05 23:01:42 1014.400 12.8 60 5.2         1457.65

Temperatura Máxima:29°    Temperatura Mínima:
Presión Máxima:1017.500 Hpa    Presión Mínima:1013.100 Hpa


Volver